createdAt,value
2019-02-19T00:00:41.045Z,10.20
2019-02-19T00:03:09.555Z,11.17
2019-02-19T00:05:38.040Z,12.43
2019-02-19T00:08:06.516Z,12.30
2019-02-19T00:10:34.907Z,10.90
2019-02-19T00:13:03.423Z,11.47
2019-02-19T00:15:31.828Z,10.83
2019-02-19T00:18:00.561Z,12.70
2019-02-19T00:20:28.948Z,10.77
2019-02-19T00:22:57.420Z,11.63
2019-02-19T00:25:26.172Z,14.87
2019-02-19T00:27:55.077Z,10.77
2019-02-19T00:30:23.608Z,12.30
2019-02-19T00:32:52.012Z,12.40
2019-02-19T00:35:20.416Z,11.90
2019-02-19T00:37:49.044Z,10.80
2019-02-19T00:40:17.452Z,15.90
2019-02-19T00:42:45.909Z,12.03
2019-02-19T00:45:16.790Z,9.63
2019-02-19T00:47:44.728Z,10.87
2019-02-19T00:50:13.196Z,13.23
2019-02-19T00:52:41.825Z,12.27
2019-02-19T00:55:10.697Z,10.73
2019-02-19T00:57:39.353Z,10.00
2019-02-19T01:00:08.056Z,11.97
2019-02-19T01:02:36.508Z,9.07
2019-02-19T01:05:05.492Z,11.57
2019-02-19T01:07:33.981Z,12.10
2019-02-19T01:10:02.441Z,11.73
2019-02-19T01:12:30.885Z,10.33
2019-02-19T01:14:59.341Z,11.77
2019-02-19T01:17:27.732Z,10.80
2019-02-19T01:19:56.265Z,9.20
2019-02-19T01:22:24.733Z,12.60
2019-02-19T01:24:53.179Z,12.50
2019-02-19T01:27:21.641Z,10.57
2019-02-19T01:29:50.093Z,12.27
2019-02-19T01:32:18.773Z,12.43
2019-02-19T01:34:47.166Z,10.67
2019-02-19T01:37:16.101Z,10.10
2019-02-19T01:39:44.605Z,11.23
2019-02-19T01:42:13.269Z,9.50
2019-02-19T01:44:41.722Z,12.33
2019-02-19T01:47:10.137Z,12.80
2019-02-19T01:49:38.510Z,15.50
2019-02-19T01:52:07.075Z,15.67
2019-02-19T01:54:35.554Z,16.80
2019-02-19T01:57:04.030Z,13.07
2019-02-19T01:59:32.707Z,14.23
2019-02-19T02:02:01.198Z,16.57
2019-02-19T02:04:29.674Z,17.87
2019-02-19T02:06:58.074Z,16.60
2019-02-19T02:09:26.536Z,19.80
2019-02-19T02:11:54.997Z,19.27
2019-02-19T02:14:23.405Z,21.27
2019-02-19T02:16:52.146Z,20.63
2019-02-19T02:19:20.518Z,18.50
2019-02-19T02:21:49.019Z,19.93
2019-02-19T02:24:17.702Z,23.63
2019-02-19T02:26:46.064Z,19.83
2019-02-19T02:29:14.462Z,23.53
2019-02-19T02:31:42.859Z,23.90
2019-02-19T02:34:11.323Z,20.80
2019-02-19T02:36:39.754Z,22.60
2019-02-19T02:39:08.204Z,20.37
2019-02-19T02:41:36.659Z,18.90
2019-02-19T02:44:05.111Z,23.50
2019-02-19T02:46:33.579Z,22.37
2019-02-19T02:49:01.982Z,18.97
2019-02-19T02:51:30.528Z,25.07
2019-02-19T02:53:58.928Z,23.33
2019-02-19T02:56:27.327Z,23.77
2019-02-19T02:58:55.711Z,22.20
2019-02-19T03:01:24.103Z,22.20
2019-02-19T03:03:52.507Z,25.47
2019-02-19T03:06:41.089Z,26.07
2019-02-19T03:09:09.551Z,22.40
2019-02-19T03:11:37.975Z,24.40
2019-02-19T03:14:06.471Z,27.17
2019-02-19T03:16:34.955Z,29.47
2019-02-19T03:19:03.407Z,25.40
2019-02-19T03:21:31.867Z,27.67
2019-02-19T03:24:00.265Z,27.97
2019-02-19T03:26:28.987Z,30.37
2019-02-19T03:28:57.914Z,27.97
2019-02-19T03:31:26.341Z,28.90
2019-02-19T03:33:54.713Z,31.10
2019-02-19T03:36:23.096Z,27.60
2019-02-19T03:38:51.484Z,31.73
2019-02-19T03:41:19.860Z,25.43
2019-02-19T03:43:48.312Z,25.97
2019-02-19T03:46:16.963Z,24.77
2019-02-19T03:48:45.373Z,26.40
2019-02-19T03:51:13.844Z,27.83
2019-02-19T03:53:42.555Z,27.10
2019-02-19T03:56:11.015Z,26.43
2019-02-19T03:58:39.495Z,26.47
2019-02-19T04:01:07.917Z,25.60
2019-02-19T04:03:36.401Z,26.80
2019-02-19T04:06:04.794Z,26.60
2019-02-19T04:08:33.335Z,27.10
2019-02-19T04:11:01.731Z,25.03
2019-02-19T04:13:30.216Z,26.27
2019-02-19T04:15:58.675Z,28.43
2019-02-19T04:18:27.181Z,24.20
2019-02-19T04:20:55.560Z,24.87
2019-02-19T04:23:23.958Z,24.83
2019-02-19T04:25:52.500Z,23.90
2019-02-19T04:28:20.984Z,24.73
2019-02-19T04:30:49.380Z,25.13
2019-02-19T04:33:17.756Z,25.60
2019-02-19T04:35:46.303Z,25.37
2019-02-19T04:38:14.700Z,24.60
2019-02-19T04:40:43.180Z,26.00
2019-02-19T04:43:11.605Z,26.33
2019-02-19T04:45:39.988Z,29.40
2019-02-19T04:48:08.369Z,29.60
2019-02-19T04:50:36.788Z,31.07
2019-02-19T04:53:05.303Z,31.00
2019-02-19T04:55:33.704Z,30.80
2019-02-19T04:58:02.160Z,27.93
2019-02-19T05:00:30.574Z,31.20
2019-02-19T05:02:58.972Z,31.23
2019-02-19T05:05:27.357Z,32.63
2019-02-19T05:07:55.829Z,35.93
2019-02-19T05:10:24.228Z,31.30
2019-02-19T05:12:52.634Z,30.73
2019-02-19T05:15:21.140Z,31.23
2019-02-19T05:17:49.860Z,31.93
2019-02-19T05:20:18.252Z,26.23
2019-02-19T05:22:46.636Z,28.23
2019-02-19T05:25:15.049Z,27.80
2019-02-19T05:27:43.497Z,28.83
2019-02-19T05:30:12.037Z,29.20
2019-02-19T05:32:40.457Z,31.97
2019-02-19T05:35:08.921Z,27.43
2019-02-19T05:37:37.533Z,29.50
2019-02-19T05:40:06.079Z,26.70
2019-02-19T05:42:34.490Z,30.57
2019-02-19T05:45:03.043Z,29.33
2019-02-19T05:47:31.477Z,29.07
2019-02-19T05:49:59.933Z,29.57
2019-02-19T05:52:28.321Z,32.07
2019-02-19T05:54:57.165Z,32.83
2019-02-19T05:57:25.558Z,29.07
2019-02-19T05:59:53.959Z,29.87
2019-02-19T06:02:22.446Z,29.37
2019-02-19T06:04:50.838Z,29.70
2019-02-19T06:07:19.229Z,30.17
2019-02-19T06:09:47.614Z,31.23
2019-02-19T06:12:16.018Z,27.70
2019-02-19T06:14:44.801Z,29.63
2019-02-19T06:17:13.203Z,30.90
2019-02-19T06:19:41.782Z,29.20
2019-02-19T06:22:10.170Z,29.50
2019-02-19T06:24:39.314Z,28.47
2019-02-19T06:27:07.798Z,30.90
2019-02-19T06:29:36.202Z,29.13
2019-02-19T06:32:04.681Z,29.87
2019-02-19T06:34:33.058Z,26.30
2019-02-19T06:37:01.530Z,28.43
2019-02-19T06:39:29.914Z,32.87
2019-02-19T06:41:58.418Z,28.33
2019-02-19T06:44:26.794Z,26.90
2019-02-19T06:46:55.530Z,27.87
2019-02-19T06:49:23.994Z,30.57
2019-02-19T06:51:52.551Z,31.30
2019-02-19T06:54:20.959Z,28.57
2019-02-19T06:56:50.259Z,31.17
2019-02-19T06:59:18.678Z,31.40
2019-02-19T07:02:12.462Z,30.10
2019-02-19T07:04:46.962Z,33.43
2019-02-19T07:07:15.363Z,32.23
2019-02-19T07:09:44.190Z,29.93
2019-02-19T07:12:12.638Z,26.87
2019-02-19T07:14:41.466Z,32.83
2019-02-19T07:17:15.481Z,32.17
2019-02-19T07:19:40.587Z,29.80
2019-02-19T07:22:08.959Z,32.57
2019-02-19T07:24:37.330Z,32.57
2019-02-19T07:27:05.831Z,36.17
2019-02-19T07:29:34.460Z,28.47
2019-02-19T07:32:03.427Z,32.63
2019-02-19T07:34:32.207Z,33.97
2019-02-19T07:37:01.519Z,31.37
2019-02-19T07:39:29.991Z,34.63
2019-02-19T07:41:58.398Z,28.30
2019-02-19T07:44:26.831Z,28.87
2019-02-19T07:46:55.321Z,26.40
2019-02-19T07:49:23.855Z,29.33
2019-02-19T07:51:52.375Z,27.50
2019-02-19T07:54:20.875Z,33.80
2019-02-19T07:56:50.283Z,28.67
2019-02-19T07:59:18.900Z,30.27
2019-02-19T08:01:47.415Z,27.43
2019-02-19T08:04:16.056Z,26.73
2019-02-19T08:06:45.916Z,32.90
2019-02-19T08:09:14.529Z,26.07
2019-02-19T08:11:42.948Z,27.70
2019-02-19T08:14:11.391Z,34.30
2019-02-19T08:16:39.853Z,27.10
2019-02-19T08:19:08.395Z,25.83
2019-02-19T08:21:37.040Z,22.37
2019-02-19T08:24:05.608Z,24.47
2019-02-19T08:26:34.038Z,24.40
2019-02-19T08:29:13.079Z,24.33
2019-02-19T08:31:32.804Z,26.30
2019-02-19T08:34:01.388Z,22.07
2019-02-19T08:36:30.249Z,23.70
2019-02-19T08:38:58.677Z,25.33
2019-02-19T08:41:27.164Z,23.03
2019-02-19T08:43:55.708Z,23.20
2019-02-19T08:46:24.248Z,26.80
2019-02-19T08:48:52.796Z,23.77
2019-02-19T08:51:21.248Z,20.47
2019-02-19T08:53:49.702Z,22.07
2019-02-19T08:56:18.530Z,21.50
2019-02-19T08:58:47.044Z,20.17
2019-02-19T09:01:15.564Z,19.13
2019-02-19T09:03:44.089Z,20.30
2019-02-19T09:06:13.216Z,19.37
2019-02-19T09:08:41.622Z,22.27
2019-02-19T09:11:10.151Z,21.60
2019-02-19T09:13:38.637Z,21.47
2019-02-19T09:16:07.140Z,14.77
2019-02-19T09:18:35.646Z,18.80
2019-02-19T09:21:04.125Z,15.73
2019-02-19T09:23:32.561Z,22.77
2019-02-19T09:26:00.965Z,18.43
2019-02-19T09:28:29.391Z,17.80
2019-02-19T09:30:57.962Z,20.13
2019-02-19T09:33:26.493Z,20.40
2019-02-19T09:35:55.217Z,19.80
2019-02-19T09:38:23.637Z,19.47
2019-02-19T09:40:52.197Z,17.50
2019-02-19T09:43:20.661Z,18.37
2019-02-19T09:45:49.074Z,15.03
2019-02-19T09:48:17.701Z,16.37
2019-02-19T09:50:46.221Z,13.70
2019-02-19T09:53:14.761Z,16.70
2019-02-19T09:55:43.878Z,14.73
2019-02-19T09:58:12.649Z,16.13
2019-02-19T10:00:41.021Z,13.83
2019-02-19T10:03:09.666Z,16.80
2019-02-19T10:05:38.207Z,14.50
2019-02-19T10:08:06.720Z,13.50
2019-02-19T10:10:35.160Z,15.07
2019-02-19T10:13:03.665Z,18.00
2019-02-19T10:15:32.194Z,12.20
2019-02-19T10:18:09.716Z,13.40
2019-02-19T10:20:31.259Z,15.50
2019-02-19T10:22:59.754Z,19.17
2019-02-19T10:25:28.181Z,15.60
2019-02-19T10:27:57.250Z,14.77
2019-02-19T10:30:26.190Z,12.10
2019-02-19T10:32:55.602Z,14.93
2019-02-19T10:35:24.550Z,15.30
2019-02-19T10:37:53.510Z,11.73
2019-02-19T10:40:22.506Z,22.17
2019-02-19T10:42:51.517Z,12.20
2019-02-19T10:45:20.618Z,14.53
2019-02-19T10:47:50.346Z,15.77
2019-02-19T10:50:20.299Z,15.33
2019-02-19T10:52:51.694Z,15.33
2019-02-19T10:55:21.002Z,12.20
2019-02-19T10:57:49.978Z,13.10
2019-02-19T11:00:19.128Z,10.67
2019-02-19T11:02:48.198Z,16.57
2019-02-19T11:05:16.838Z,16.23
2019-02-19T11:07:45.262Z,16.13
2019-02-19T11:10:13.790Z,15.77
2019-02-19T11:12:42.270Z,17.07
2019-02-19T11:15:10.818Z,14.90
2019-02-19T11:17:39.251Z,13.17
2019-02-19T11:20:08.610Z,18.00
2019-02-19T11:22:37.074Z,20.73
2019-02-19T11:25:06.227Z,12.23
2019-02-19T11:27:35.199Z,17.20
2019-02-19T11:30:04.555Z,14.07
2019-02-19T11:32:33.407Z,17.03
2019-02-19T11:35:01.927Z,14.80
2019-02-19T11:37:30.335Z,15.47
2019-02-19T11:39:58.912Z,16.40
2019-02-19T11:42:27.443Z,15.60
2019-02-19T11:44:55.895Z,19.70
2019-02-19T11:47:26.605Z,14.70
2019-02-19T11:49:54.819Z,15.83
2019-02-19T11:52:23.880Z,17.87
2019-02-19T11:54:52.827Z,16.70
2019-02-19T11:57:21.742Z,18.23
2019-02-19T11:59:50.871Z,14.90
2019-02-19T12:02:20.499Z,16.62
2019-02-19T12:04:49.512Z,14.03
2019-02-19T12:07:18.876Z,21.40
2019-02-19T12:09:47.351Z,16.17
2019-02-19T12:12:15.803Z,16.93
2019-02-19T12:14:44.367Z,19.47
2019-02-19T12:17:12.747Z,16.77
2019-02-19T12:19:41.659Z,17.93
2019-02-19T12:22:10.061Z,19.57
2019-02-19T12:24:38.535Z,18.27
2019-02-19T12:27:08.844Z,16.57
2019-02-19T12:29:37.199Z,13.97
2019-02-19T12:32:05.687Z,18.27
2019-02-19T12:34:34.204Z,14.23
2019-02-19T12:37:02.624Z,16.20
2019-02-19T12:39:31.048Z,18.57
2019-02-19T12:41:59.488Z,18.30
2019-02-19T12:44:27.899Z,17.37
2019-02-19T12:46:56.276Z,16.83
2019-02-19T12:49:24.680Z,16.70
2019-02-19T12:51:53.236Z,15.53
2019-02-19T12:54:21.744Z,17.27
2019-02-19T12:56:50.192Z,18.70
2019-02-19T12:59:18.772Z,13.53
2019-02-19T13:01:47.164Z,14.00
2019-02-19T13:04:15.624Z,15.37
2019-02-19T13:06:44.648Z,14.37
2019-02-19T13:09:13.024Z,16.30
2019-02-19T13:11:41.428Z,14.77
2019-02-19T13:14:09.816Z,11.13
2019-02-19T13:16:38.229Z,16.70
2019-02-19T13:19:06.792Z,15.27
2019-02-19T13:21:35.272Z,16.83
2019-02-19T13:24:03.685Z,27.10
2019-02-19T13:26:32.118Z,16.23
2019-02-19T13:29:00.513Z,13.77
2019-02-19T13:31:29.276Z,14.67
2019-02-19T13:33:57.713Z,16.63
2019-02-19T13:36:26.173Z,16.27
2019-02-19T13:38:54.557Z,14.10
2019-02-19T13:41:22.977Z,12.93
2019-02-19T13:43:51.453Z,13.97
2019-02-19T13:46:20.448Z,12.60
2019-02-19T13:48:48.842Z,12.27
2019-02-19T13:51:17.574Z,12.63
2019-02-19T13:54:14.364Z,14.07
2019-02-19T13:56:42.861Z,10.60
2019-02-19T13:59:11.341Z,11.40
2019-02-19T14:01:39.845Z,10.77
2019-02-19T14:04:08.230Z,14.47
2019-02-19T14:06:36.642Z,11.17
2019-02-19T14:09:05.545Z,12.77
2019-02-19T14:11:34.029Z,11.53
2019-02-19T14:14:15.325Z,12.73
2019-02-19T14:16:53.201Z,11.33
2019-02-19T14:19:34.266Z,10.73
2019-02-19T14:22:10.359Z,12.70
2019-02-19T14:25:01.158Z,10.07
2019-02-19T14:27:48.750Z,14.33
2019-02-19T14:30:51.405Z,13.43
2019-02-19T14:33:49.375Z,9.10
2019-02-19T14:36:27.702Z,10.87
2019-02-19T14:39:12.477Z,15.03
2019-02-19T14:41:55.106Z,10.30
2019-02-19T14:44:42.746Z,11.33
2019-02-19T14:47:33.849Z,12.37
2019-02-19T14:50:24.246Z,13.63
2019-02-19T14:53:15.779Z,12.30
2019-02-19T14:56:05.422Z,13.17
2019-02-19T14:58:51.793Z,9.47
2019-02-19T15:01:40.130Z,10.37
2019-02-19T15:04:45.838Z,8.67
2019-02-19T15:07:32.595Z,11.17
2019-02-19T15:10:26.217Z,14.73
2019-02-19T15:13:16.910Z,15.30
2019-02-19T15:16:03.676Z,11.63
2019-02-19T15:18:54.698Z,8.77
2019-02-19T15:21:40.954Z,8.33
2019-02-19T15:24:37.530Z,10.30
2019-02-19T15:27:28.003Z,9.00
2019-02-19T15:30:07.479Z,9.40
2019-02-19T15:32:55.104Z,9.97
2019-02-19T15:35:41.608Z,7.23
2019-02-19T15:38:28.123Z,6.70
2019-02-19T15:41:31.087Z,7.57
2019-02-19T15:44:20.187Z,7.03
2019-02-19T15:47:07.751Z,9.80
2019-02-19T15:49:50.235Z,5.87
2019-02-19T15:52:55.889Z,6.63
2019-02-19T15:55:40.503Z,8.70
2019-02-19T15:58:18.881Z,7.80
2019-02-19T16:01:05.659Z,6.53
2019-02-19T16:03:49.489Z,7.77
2019-02-19T16:06:29.427Z,7.07
2019-02-19T16:09:19.907Z,9.10
2019-02-19T16:12:03.077Z,6.90
2019-02-19T16:14:47.848Z,8.00
2019-02-19T16:17:32.983Z,7.70
2019-02-19T16:20:10.855Z,6.97
2019-02-19T16:22:58.403Z,7.00
2019-02-19T16:25:51.995Z,6.53
2019-02-19T16:28:52.615Z,8.13
2019-02-19T16:31:42.004Z,6.47
2019-02-19T16:34:29.772Z,7.77
2019-02-19T16:37:17.307Z,11.80
2019-02-19T16:39:52.508Z,12.00
2019-02-19T16:42:46.783Z,7.27
2019-02-19T16:45:37.696Z,9.37
2019-02-19T16:48:37.368Z,7.03
2019-02-19T16:51:12.858Z,8.20
2019-02-19T16:54:09.620Z,6.87
2019-02-19T16:56:53.953Z,7.93
2019-02-19T16:59:40.332Z,8.10
2019-02-19T17:02:17.324Z,5.83
2019-02-19T17:04:55.380Z,7.17
2019-02-19T17:07:33.436Z,8.00
2019-02-19T17:10:12.408Z,6.00
2019-02-19T17:13:03.183Z,9.53
2019-02-19T17:15:49.336Z,9.23
2019-02-19T17:18:35.894Z,9.60
2019-02-19T17:21:32.932Z,10.00
2019-02-19T17:24:22.976Z,6.97
2019-02-19T17:27:02.900Z,8.83
2019-02-19T17:30:06.024Z,6.67
2019-02-19T17:33:08.725Z,7.27
2019-02-19T17:35:52.780Z,8.73
2019-02-19T17:38:50.329Z,11.80
2019-02-19T17:41:33.629Z,7.40
2019-02-19T17:44:39.665Z,9.27
2019-02-19T17:47:23.480Z,7.60
2019-02-19T17:50:11.137Z,8.77
2019-02-19T17:52:49.117Z,7.17
2019-02-19T17:55:55.261Z,6.37
2019-02-19T17:58:34.885Z,9.90
2019-02-19T18:01:21.445Z,7.57
2019-02-19T18:04:06.006Z,7.43
2019-02-19T18:06:53.625Z,8.93
2019-02-19T18:09:47.742Z,12.23
2019-02-19T18:12:22.721Z,8.53
2019-02-19T18:15:16.385Z,16.77
2019-02-19T18:17:56.518Z,10.93
2019-02-19T18:20:25.085Z,19.00
2019-02-19T18:22:53.466Z,8.97
2019-02-19T18:25:22.083Z,13.50
2019-02-19T18:27:50.586Z,11.40
2019-02-19T18:30:19.053Z,6.97
2019-02-19T18:32:47.601Z,6.17
2019-02-19T18:35:16.110Z,11.47
2019-02-19T18:37:44.582Z,9.05
2019-02-19T18:40:32.300Z,8.53
2019-02-19T18:43:00.702Z,5.33
2019-02-19T18:45:29.114Z,8.47
2019-02-19T18:47:57.589Z,10.97
2019-02-19T18:50:26.034Z,10.07
2019-02-19T18:52:54.426Z,6.83
2019-02-19T18:55:22.827Z,14.60
2019-02-19T18:57:51.315Z,11.33
2019-02-19T19:00:19.930Z,9.90
2019-02-19T19:02:48.406Z,9.90
2019-02-19T19:05:16.858Z,7.37
2019-02-19T19:07:45.315Z,7.77
2019-02-19T19:10:14.201Z,10.23
2019-02-19T19:12:43.094Z,11.17
2019-02-19T19:15:11.531Z,10.23
2019-02-19T19:17:40.015Z,12.77
2019-02-19T19:20:08.687Z,14.33
2019-02-19T19:22:37.372Z,10.70
2019-02-19T19:25:05.863Z,11.73
2019-02-19T19:27:34.539Z,11.47
2019-02-19T19:30:03.139Z,11.03
2019-02-19T19:32:31.587Z,8.77
2019-02-19T19:35:00.108Z,7.73
2019-02-19T19:37:28.727Z,7.90
2019-02-19T19:39:57.841Z,9.17
2019-02-19T19:42:26.232Z,8.90
2019-02-19T19:44:54.695Z,11.93
2019-02-19T19:47:23.091Z,15.77
2019-02-19T19:49:51.667Z,12.30
2019-02-19T19:52:20.079Z,16.80
2019-02-19T19:54:48.596Z,17.33
2019-02-19T19:57:17.057Z,13.57
2019-02-19T19:59:45.475Z,12.90
2019-02-19T20:02:14.063Z,12.17
2019-02-19T20:04:42.541Z,12.63
2019-02-19T20:07:11.049Z,9.13
2019-02-19T20:09:39.851Z,12.67
2019-02-19T20:12:08.308Z,9.93
2019-02-19T20:14:36.806Z,12.50
2019-02-19T20:17:05.332Z,11.97
2019-02-19T20:19:33.924Z,16.17
2019-02-19T20:22:02.430Z,12.57
2019-02-19T20:24:30.864Z,16.37
2019-02-19T20:26:59.320Z,12.60
2019-02-19T20:29:27.800Z,14.03
2019-02-19T20:31:56.312Z,18.57
2019-02-19T20:34:24.838Z,15.30
2019-02-19T20:36:53.297Z,12.10
2019-02-19T20:39:22.503Z,13.53
2019-02-19T20:41:50.956Z,14.63
2019-02-19T20:44:19.377Z,12.50
2019-02-19T20:46:47.837Z,12.57
2019-02-19T20:49:16.219Z,10.83
2019-02-19T20:51:44.712Z,15.97
2019-02-19T20:54:13.253Z,10.23
2019-02-19T20:56:41.754Z,14.10
2019-02-19T20:59:10.192Z,14.23
2019-02-19T21:01:38.948Z,13.63
2019-02-19T21:04:07.328Z,10.00
2019-02-19T21:06:35.716Z,16.53
2019-02-19T21:09:05.368Z,12.17
2019-02-19T21:11:33.771Z,12.50
2019-02-19T21:14:02.157Z,10.53
2019-02-19T21:16:30.640Z,12.40
2019-02-19T21:18:59.324Z,11.67
2019-02-19T21:21:27.720Z,10.97
2019-02-19T21:23:56.141Z,12.37
2019-02-19T21:26:25.013Z,15.30
2019-02-19T21:28:53.684Z,13.17
2019-02-19T21:31:22.896Z,14.90
2019-02-19T21:33:51.321Z,13.53
2019-02-19T21:36:38.960Z,12.97
2019-02-19T21:39:07.469Z,16.50
2019-02-19T21:41:35.860Z,14.57
2019-02-19T21:44:04.340Z,15.13
2019-02-19T21:46:33.329Z,15.60
2019-02-19T21:49:01.914Z,10.00
2019-02-19T21:51:30.673Z,17.67
2019-02-19T21:53:59.073Z,19.67
2019-02-19T21:56:27.485Z,14.50
2019-02-19T21:58:56.013Z,15.70
2019-02-19T22:01:24.409Z,15.00
2019-02-19T22:03:53.060Z,15.27
2019-02-19T22:06:21.513Z,9.87
2019-02-19T22:08:50.389Z,14.17
2019-02-19T22:11:18.845Z,16.13
2019-02-19T22:13:47.364Z,11.33
2019-02-19T22:16:15.782Z,13.63
2019-02-19T22:18:44.321Z,9.33
2019-02-19T22:21:32.237Z,13.00
2019-02-19T22:24:00.926Z,11.93
2019-02-19T22:26:29.321Z,16.67
2019-02-19T22:28:57.779Z,17.17
2019-02-19T22:31:26.253Z,15.63
2019-02-19T22:33:54.661Z,16.00
2019-02-19T22:36:23.724Z,12.93
2019-02-19T22:38:52.185Z,11.77
2019-02-19T22:41:20.657Z,11.97
2019-02-19T22:43:49.116Z,12.70
2019-02-19T22:46:17.585Z,14.23
2019-02-19T22:48:46.058Z,13.13
2019-02-19T22:51:14.794Z,16.63
2019-02-19T22:53:52.607Z,11.57
2019-02-19T22:56:24.798Z,13.40
2019-02-19T22:58:53.274Z,13.47
2019-02-19T23:01:33.634Z,13.33
2019-02-19T23:04:02.130Z,13.03
2019-02-19T23:06:30.850Z,11.83
2019-02-19T23:08:59.658Z,14.50
2019-02-19T23:11:28.126Z,12.87
2019-02-19T23:13:56.614Z,16.23
2019-02-19T23:16:25.006Z,17.53
2019-02-19T23:18:53.386Z,15.40
2019-02-19T23:21:21.854Z,12.40
2019-02-19T23:23:50.282Z,11.47
2019-02-19T23:26:18.728Z,15.30
2019-02-19T23:28:47.143Z,11.10
2019-02-19T23:31:15.538Z,16.67
2019-02-19T23:33:44.302Z,13.87
2019-02-19T23:36:23.498Z,13.27
2019-02-19T23:38:51.890Z,12.17
2019-02-19T23:41:20.286Z,16.00
2019-02-19T23:43:48.755Z,12.93
2019-02-19T23:46:17.162Z,13.03
2019-02-19T23:48:45.556Z,13.83
2019-02-19T23:51:14.523Z,10.50
2019-02-19T23:53:42.915Z,12.43
2019-02-19T23:56:11.311Z,13.27
2019-02-19T23:58:40.072Z,12.23
